Time;durP1;ratioP1;P1;durP2;ratioP2;P2;SDS_P1;SDS_P2;PMS_P1;PMS_P2;Temp;Humidity;BMP_temperature;BMP_pressure;BME280_temperature;BME280_humidity;BME280_pressure;Samples;Min_cycle;Max_cycle;Signal;HPM_P1;HPM_P2
2021/09/30 00:02:27;;;;;;;20.35;14.80;;;;;;;12.64;100.00;99321.80;2194666;81;20993;-90
2021/09/30 00:05:28;;;;;;;24.77;15.98;;;;;;;12.64;100.00;99321.80;2172989;81;21052;-91
2021/09/30 00:08:28;;;;;;;23.90;15.65;;;;;;;12.68;100.00;99325.19;2194803;81;21099;-91
2021/09/30 00:11:32;;;;;;;18.52;14.18;;;;;;;12.70;100.00;99331.08;2194542;81;21048;-91
2021/09/30 00:14:44;;;;;;;24.10;16.15;;;;;;;12.71;100.00;99331.89;2194619;81;21011;-91
2021/09/30 00:41:14;;;;;;;21.50;15.10;;;;;;;12.89;100.00;99325.81;2200968;81;21595;-91
2021/09/30 01:23:26;;;;;;;17.70;14.95;;;;;;;12.88;100.00;99352.27;2030747;88;21155;-90
2021/09/30 01:52:50;;;;;;;22.13;16.70;;;;;;;13.10;100.00;99368.00;2201014;81;21080;-92
2021/09/30 02:18:10;;;;;;;21.37;15.95;;;;;;;13.19;100.00;99366.14;2201078;81;21020;-91
2021/09/30 02:28:12;;;;;;;31.25;21.90;;;;;;;13.32;100.00;99382.09;2074424;86;21108;-89
2021/09/30 03:00:20;;;;;;;36.90;24.98;;;;;;;13.47;100.00;99380.80;2076700;82;21123;-93
2021/09/30 03:03:21;;;;;;;41.30;27.77;;;;;;;13.48;100.00;99377.16;2168136;82;21502;-88
2021/09/30 03:06:22;;;;;;;39.10;28.42;;;;;;;13.53;100.00;99380.55;2167978;82;21611;-89
2021/09/30 03:09:23;;;;;;;41.73;29.63;;;;;;;13.53;100.00;99393.23;2168538;82;20997;-90
2021/09/30 03:12:30;;;;;;;39.98;27.58;;;;;;;13.47;100.00;99399.21;2169079;82;21009;-87
2021/09/30 03:15:40;;;;;;;44.42;29.05;;;;;;;13.46;100.00;99391.00;2168609;82;21077;-88
2021/09/30 03:18:49;;;;;;;39.45;26.90;;;;;;;13.43;100.00;99393.98;2167441;81;21074;-87
2021/09/30 03:24:58;;;;;;;42.33;28.07;;;;;;;13.46;100.00;99401.53;2206093;81;21090;-87
2021/09/30 03:27:59;;;;;;;44.03;27.87;;;;;;;13.43;100.00;99402.37;2206145;81;20995;-85
2021/09/30 03:31:00;;;;;;;42.17;27.55;;;;;;;13.40;100.00;99401.42;2206140;81;21532;-85
2021/09/30 03:34:01;;;;;;;41.08;27.32;;;;;;;13.43;100.00;99403.69;2206272;81;21007;-85
2021/09/30 03:37:02;;;;;;;43.33;29.18;;;;;;;13.52;100.00;99411.80;2206382;81;21067;-85
2021/09/30 03:40:02;;;;;;;59.23;35.13;;;;;;;13.55;100.00;99414.91;2206265;81;21007;-85
2021/09/30 03:43:03;;;;;;;42.93;28.60;;;;;;;13.61;100.00;99416.80;2206397;81;21039;-85
2021/09/30 03:46:04;;;;;;;42.20;27.15;;;;;;;13.62;100.00;99425.50;2206331;81;21533;-85
2021/09/30 03:49:11;;;;;;;38.23;26.23;;;;;;;13.61;100.00;99420.73;2206236;81;20944;-85
2021/09/30 03:52:17;;;;;;;39.05;27.95;;;;;;;13.62;100.00;99428.98;2206336;81;21090;-85
2021/09/30 04:01:48;;;;;;;40.45;28.60;;;;;;;13.56;100.00;99430.20;2206321;81;21016;-84
2021/09/30 04:04:48;;;;;;;37.25;27.70;;;;;;;13.55;100.00;99443.03;2206344;79;21079;-84
2021/09/30 04:07:49;;;;;;;41.25;28.62;;;;;;;13.57;100.00;99455.50;2206289;81;21019;-85
2021/09/30 04:10:50;;;;;;;37.67;27.95;;;;;;;13.58;100.00;99457.13;2206304;81;21011;-85
2021/09/30 04:13:51;;;;;;;42.10;28.15;;;;;;;13.52;100.00;99462.61;2206259;81;20999;-85
2021/09/30 04:16:52;;;;;;;47.20;32.58;;;;;;;13.42;100.00;99456.80;2206397;81;21020;-86
2021/09/30 04:19:52;;;;;;;93.15;52.17;;;;;;;13.44;100.00;99465.81;2206476;81;21483;-85
2021/09/30 04:22:53;;;;;;;60.15;39.23;;;;;;;13.42;100.00;99462.05;2209000;81;21012;-87
2021/09/30 04:25:54;;;;;;;48.92;32.25;;;;;;;13.43;100.00;99462.88;2209011;81;21027;-85
2021/09/30 04:28:55;;;;;;;42.53;30.65;;;;;;;13.42;100.00;99460.73;2208664;81;21020;-84
2021/09/30 04:31:56;;;;;;;38.80;27.15;;;;;;;13.38;100.00;99463.42;2208621;81;21090;-86
2021/09/30 04:34:56;;;;;;;42.13;28.92;;;;;;;13.35;100.00;99466.42;2208659;81;21060;-85
2021/09/30 04:37:57;;;;;;;39.33;27.07;;;;;;;13.32;100.00;99466.26;2208446;81;20972;-87
2021/09/30 04:40:58;;;;;;;45.83;28.38;;;;;;;13.38;100.00;99472.63;2208670;81;21087;-87
2021/09/30 04:43:59;;;;;;;42.43;27.90;;;;;;;13.37;100.00;99469.69;2208471;81;20955;-87
2021/09/30 04:47:00;;;;;;;39.33;26.97;;;;;;;13.50;100.00;99475.63;2208794;81;21086;-88
2021/09/30 04:50:01;;;;;;;36.85;26.17;;;;;;;13.52;100.00;99488.91;2209990;81;21047;-92
2021/09/30 04:53:02;;;;;;;37.28;26.17;;;;;;;13.56;100.00;99489.39;2209199;81;20991;-91
2021/09/30 04:56:02;;;;;;;41.65;26.60;;;;;;;13.52;100.00;99491.55;2209551;81;21447;-92
2021/09/30 04:59:04;;;;;;;41.02;25.70;;;;;;;13.54;100.00;99504.05;2209158;81;20940;-91
2021/09/30 05:02:05;;;;;;;43.52;26.95;;;;;;;13.58;100.00;99502.68;2209103;81;20996;-90
2021/09/30 05:05:06;;;;;;;44.08;28.12;;;;;;;13.55;100.00;99512.76;2209189;81;21484;-91
2021/09/30 05:08:07;;;;;;;35.98;25.68;;;;;;;13.52;100.00;99517.04;2208754;81;21062;-91
2021/09/30 05:11:07;;;;;;;34.45;24.40;;;;;;;13.50;100.00;99523.80;2209277;81;20925;-91
2021/09/30 05:14:10;;;;;;;34.67;24.98;;;;;;;13.50;100.00;99528.25;2209708;81;21551;-88
2021/09/30 05:17:10;;;;;;;33.18;23.92;;;;;;;13.52;100.00;99533.64;2208986;81;21019;-90
2021/09/30 05:20:11;;;;;;;36.85;25.20;;;;;;;13.50;100.00;99537.45;2209413;81;20988;-91
2021/09/30 05:23:12;;;;;;;33.15;23.10;;;;;;;13.43;100.00;99537.34;2210336;79;21055;-91
2021/09/30 05:26:13;;;;;;;38.78;27.50;;;;;;;13.50;100.00;99543.53;2208874;81;20988;-89
2021/09/30 05:29:14;;;;;;;40.60;26.93;;;;;;;13.53;100.00;99543.66;2208965;81;21023;-86
2021/09/30 05:32:15;;;;;;;44.75;30.08;;;;;;;13.51;100.00;99543.03;2208487;81;21075;-85
2021/09/30 05:35:15;;;;;;;48.38;32.65;;;;;;;13.51;100.00;99543.03;2208430;81;21495;-87
2021/09/30 05:38:16;;;;;;;45.03;30.08;;;;;;;13.58;100.00;99551.36;2208328;81;21019;-86
2021/09/30 05:41:17;;;;;;;44.55;30.92;;;;;;;13.58;100.00;99543.96;2208487;81;20940;-87
2021/09/30 05:44:22;;;;;;;46.33;29.02;;;;;;;13.58;100.00;99544.78;2208443;81;21004;-86
2021/09/30 05:47:21;;;;;;;39.18;28.12;;;;;;;13.61;100.00;99550.98;2208264;80;21039;-86
2021/09/30 05:50:21;;;;;;;49.23;31.30;;;;;;;13.61;100.00;99539.15;2208485;81;21015;-87
2021/09/30 05:53:22;;;;;;;43.33;28.45;;;;;;;13.65;100.00;99539.62;2208618;81;21015;-87
2021/09/30 05:56:23;;;;;;;45.20;27.87;;;;;;;13.64;100.00;99542.76;2208621;81;20978;-87
2021/09/30 05:59:24;;;;;;;50.33;32.63;;;;;;;13.66;100.00;99553.10;2208624;81;21071;-87
2021/09/30 06:12:11;;;;;;;41.98;27.95;;;;;;;13.55;100.00;99578.03;2208395;81;21043;-84
2021/09/30 06:15:14;;;;;;;46.20;31.62;;;;;;;13.50;100.00;99586.12;2208622;81;21032;-85
2021/09/30 06:18:15;;;;;;;40.75;26.15;;;;;;;13.42;100.00;99592.27;2208613;81;21000;-85
2021/09/30 06:21:16;;;;;;;41.65;28.98;;;;;;;13.41;100.00;99597.70;2206811;81;21123;-86
2021/09/30 06:24:17;;;;;;;36.08;26.20;;;;;;;13.37;100.00;99602.52;2200509;81;20975;-86
2021/09/30 06:27:19;;;;;;;35.50;25.12;;;;;;;13.35;100.00;99620.29;2195321;81;21024;-85
2021/09/30 06:30:21;;;;;;;37.17;26.30;;;;;;;13.33;100.00;99619.13;2200457;81;21357;-86
2021/09/30 06:33:24;;;;;;;31.33;23.02;;;;;;;13.33;100.00;99638.03;2200117;81;20960;-86
2021/09/30 06:36:24;;;;;;;34.15;23.70;;;;;;;13.29;100.00;99644.15;2200276;81;21067;-87
2021/09/30 06:39:25;;;;;;;34.65;24.20;;;;;;;13.29;100.00;99644.15;2200237;81;21016;-86
2021/09/30 06:42:26;;;;;;;31.65;21.42;;;;;;;13.25;100.00;99646.79;2200442;81;21008;-86
2021/09/30 06:45:27;;;;;;;30.05;19.17;;;;;;;13.22;100.00;99647.14;2200292;81;21068;-86
2021/09/30 06:48:29;;;;;;;21.82;16.12;;;;;;;13.20;100.00;99643.87;2200201;81;21647;-86
2021/09/30 06:51:32;;;;;;;22.35;15.78;;;;;;;13.25;100.00;99653.36;2200130;81;21614;-85
2021/09/30 06:54:33;;;;;;;20.85;14.58;;;;;;;13.24;100.00;99665.37;2200390;81;21091;-86
2021/09/30 06:57:33;;;;;;;20.02;15.08;;;;;;;13.21;100.00;99669.18;2200415;81;20988;-86
2021/09/30 07:00:34;;;;;;;20.95;14.80;;;;;;;13.28;100.00;99689.86;2200400;81;21661;-86
2021/09/30 07:03:35;;;;;;;24.50;18.65;;;;;;;13.43;100.00;99699.13;2200238;81;21020;-86
2021/09/30 07:06:36;;;;;;;29.95;19.42;;;;;;;13.52;100.00;99698.08;2200344;81;21035;-86
2021/09/30 07:09:37;;;;;;;27.82;20.20;;;;;;;13.64;100.00;99706.41;2200376;81;21054;-86
2021/09/30 07:12:37;;;;;;;28.55;20.60;;;;;;;13.62;100.00;99700.02;2200258;81;21040;-86
2021/09/30 07:15:38;;;;;;;25.40;17.87;;;;;;;13.65;100.00;99697.52;2200139;81;21482;-88
2021/09/30 07:18:39;;;;;;;24.60;18.10;;;;;;;13.72;100.00;99701.59;2200384;81;20972;-87
2021/09/30 07:21:40;;;;;;;23.45;17.25;;;;;;;13.79;100.00;99707.27;2202816;79;21047;-87
2021/09/30 07:24:41;;;;;;;25.17;18.67;;;;;;;13.89;100.00;99699.13;2208399;81;21027;-87
2021/09/30 07:27:42;;;;;;;23.32;17.60;;;;;;;13.89;100.00;99699.13;2208538;81;21035;-87
2021/09/30 07:30:42;;;;;;;25.92;18.95;;;;;;;13.99;100.00;99718.16;2208573;81;21010;-88
2021/09/30 07:33:43;;;;;;;20.68;16.00;;;;;;;14.15;100.00;99728.54;2208388;81;21076;-86
2021/09/30 07:36:44;;;;;;;20.60;15.50;;;;;;;14.11;100.00;99723.31;2208516;81;21550;-88
2021/09/30 07:39:45;;;;;;;15.50;12.98;;;;;;;14.26;100.00;99722.52;2208355;81;21141;-87
2021/09/30 07:42:48;;;;;;;18.25;13.85;;;;;;;14.26;100.00;99723.33;2206755;81;21059;-86
2021/09/30 07:45:48;;;;;;;14.38;12.30;;;;;;;14.16;100.00;99724.09;2208610;81;21034;-85
2021/09/30 07:48:49;;;;;;;16.12;13.05;;;;;;;14.12;100.00;99722.31;2208741;81;21032;-88
2021/09/30 07:51:50;;;;;;;16.65;13.58;;;;;;;14.08;100.00;99736.00;2208725;81;21058;-87
2021/09/30 07:54:51;;;;;;;13.55;12.03;;;;;;;14.04;100.00;99728.16;2210609;81;21065;-87
2021/09/30 07:57:52;;;;;;;19.37;12.30;;;;;;;14.08;100.00;99733.37;2211620;81;21087;-88
2021/09/30 08:00:53;;;;;;;15.30;10.98;;;;;;;14.14;100.00;99742.70;2206841;81;21024;-88
2021/09/30 08:03:54;;;;;;;14.90;11.20;;;;;;;14.20;100.00;99751.72;2210315;81;20994;-88
2021/09/30 08:06:55;;;;;;;17.42;11.85;;;;;;;14.24;100.00;99755.63;2208223;81;21115;-85
2021/09/30 08:09:56;;;;;;;13.98;9.88;;;;;;;14.26;100.00;99748.86;2208486;81;21006;-92
2021/09/30 08:12:57;;;;;;;14.23;10.70;;;;;;;14.21;100.00;99752.86;2208688;81;21026;-94
2021/09/30 08:15:58;;;;;;;11.60;9.20;;;;;;;14.16;100.00;99755.19;2208638;81;20983;-94
2021/09/30 08:18:59;;;;;;;12.40;11.15;;;;;;;14.20;100.00;99758.31;2208820;81;21102;-93
2021/09/30 08:22:00;;;;;;;18.98;10.98;;;;;;;14.24;100.00;99754.31;2208949;81;21109;-94
2021/09/30 08:25:00;;;;;;;13.80;10.53;;;;;;;14.25;100.00;99755.95;2208919;81;21241;-94
2021/09/30 08:28:01;;;;;;;10.18;9.15;;;;;;;14.37;100.00;99757.67;2209144;81;20995;-89
2021/09/30 08:31:02;;;;;;;12.47;10.13;;;;;;;14.42;100.00;99759.26;2209507;81;21059;-90
2021/09/30 08:34:03;;;;;;;13.18;9.60;;;;;;;14.40;100.00;99751.54;2210247;81;21007;-89
2021/09/30 08:37:04;;;;;;;14.80;9.55;;;;;;;14.43;100.00;99748.53;2209073;81;21071;-90
2021/09/30 08:40:05;;;;;;;11.28;8.33;;;;;;;14.58;100.00;99745.97;2208615;81;21528;-88
2021/09/30 08:43:06;;;;;;;10.45;8.00;;;;;;;14.75;100.00;99759.30;2208659;81;21030;-87
2021/09/30 08:46:07;;;;;;;9.15;7.20;;;;;;;14.84;100.00;99761.85;2208687;81;21083;-86
2021/09/30 08:49:09;;;;;;;5.90;5.30;;;;;;;14.95;100.00;99769.30;2208566;81;21038;-85
2021/09/30 08:52:10;;;;;;;6.28;4.40;;;;;;;14.95;100.00;99764.84;2208588;81;21063;-85
2021/09/30 08:55:11;;;;;;;6.55;4.42;;;;;;;14.85;96.55;99772.71;2208556;81;21023;-86
2021/09/30 08:58:12;;;;;;;5.87;4.03;;;;;;;14.75;100.00;99767.70;2208748;81;21094;-86
2021/09/30 09:01:13;;;;;;;5.12;4.55;;;;;;;14.78;98.67;99780.02;2208737;81;21011;-89
2021/09/30 09:04:14;;;;;;;8.03;4.40;;;;;;;14.71;99.28;99776.95;2208660;81;21070;-85
2021/09/30 09:07:15;;;;;;;6.00;4.28;;;;;;;14.65;97.08;99780.34;2208640;81;20987;-83
2021/09/30 09:10:17;;;;;;;6.37;4.70;;;;;;;14.64;100.00;99772.11;2208735;81;21078;-88
2021/09/30 09:13:18;;;;;;;8.63;5.55;;;;;;;14.67;100.00;99779.15;2208943;81;21015;-86
2021/09/30 09:16:19;;;;;;;9.48;5.75;;;;;;;14.65;99.48;99790.88;2208596;81;21019;-85
2021/09/30 09:19:21;;;;;;;6.40;5.72;;;;;;;14.57;98.69;99783.86;2208683;81;20979;-80
2021/09/30 09:22:22;;;;;;;8.18;5.20;;;;;;;14.50;98.76;99782.44;2206597;80;21035;-89
2021/09/30 10:27:02;;;;;;;9.53;6.00;;;;;;;15.10;100.00;99814.97;2346346;76;22774;-82
2021/09/30 10:30:03;;;;;;;6.37;3.85;;;;;;;15.18;99.25;99814.88;2315461;77;21068;-83
2021/09/30 10:33:04;;;;;;;8.43;4.40;;;;;;;15.31;98.66;99823.45;2315641;77;21046;-81
2021/09/30 10:36:06;;;;;;;6.12;4.60;;;;;;;15.49;98.55;99827.86;2315744;77;21080;-83
2021/09/30 10:39:07;;;;;;;6.70;4.92;;;;;;;15.66;94.69;99827.18;2315936;77;21071;-87
2021/09/30 10:42:08;;;;;;;7.85;4.30;;;;;;;15.86;95.44;99828.72;2315809;77;20969;-86
2021/09/30 10:45:09;;;;;;;11.40;5.00;;;;;;;16.02;96.84;99825.04;2315595;77;21099;-84
2021/09/30 10:48:10;;;;;;;15.90;4.28;;;;;;;16.21;94.92;99820.45;2315800;77;21056;-84
2021/09/30 10:51:12;;;;;;;7.97;3.45;;;;;;;16.43;95.57;99810.67;2315642;77;20973;-87
2021/09/30 10:54:13;;;;;;;7.67;3.47;;;;;;;16.65;94.12;99816.26;2315627;77;21053;-86
2021/09/30 10:57:14;;;;;;;3.40;2.90;;;;;;;16.75;90.25;99820.73;2315488;77;20937;-87
2021/09/30 11:00:15;;;;;;;6.75;3.58;;;;;;;16.66;88.67;99827.14;2315406;77;21056;-87
2021/09/30 11:03:23;;;;;;;4.72;3.80;;;;;;;16.57;92.16;99829.61;2315324;77;21069;-87
2021/09/30 11:06:24;;;;;;;6.33;3.58;;;;;;;16.61;91.12;99825.56;2315551;77;21025;-83
2021/09/30 11:09:26;;;;;;;8.25;3.40;;;;;;;16.72;89.90;99825.57;2316028;77;20980;-90
2021/09/30 11:12:27;;;;;;;4.17;3.02;;;;;;;16.73;88.90;99817.47;2315638;77;21096;-86
2021/09/30 11:15:28;;;;;;;3.75;2.77;;;;;;;16.76;86.03;99815.75;2315573;77;20949;-84
2021/09/30 11:18:30;;;;;;;3.15;2.85;;;;;;;16.63;85.63;99815.61;2315739;77;21049;-87
2021/09/30 11:21:31;;;;;;;3.00;2.77;;;;;;;16.59;82.92;99818.33;2315625;77;21054;-88
2021/09/30 11:24:32;;;;;;;5.62;3.10;;;;;;;16.58;85.91;99827.28;2314031;77;21000;-88
2021/09/30 11:27:34;;;;;;;3.52;3.22;;;;;;;16.53;86.18;99822.23;2302230;77;21430;-88
2021/09/30 11:30:35;;;;;;;3.62;2.67;;;;;;;16.47;85.70;99824.66;2302124;77;21022;-87
2021/09/30 11:33:36;;;;;;;8.35;2.77;;;;;;;16.46;85.78;99826.98;2302175;77;21568;-87
2021/09/30 11:36:40;;;;;;;3.00;2.52;;;;;;;16.47;85.68;99833.91;2301792;77;20953;-87
2021/09/30 11:39:41;;;;;;;3.17;2.67;;;;;;;16.46;83.97;99828.31;2301288;77;21037;-87
2021/09/30 11:42:42;;;;;;;5.55;2.65;;;;;;;16.40;83.48;99825.09;2301356;77;21010;-87
2021/09/30 11:45:43;;;;;;;4.92;3.08;;;;;;;16.41;81.76;99833.34;2301271;77;21033;-88
2021/09/30 11:48:44;;;;;;;5.78;3.05;;;;;;;16.39;83.36;99825.29;2301489;77;21065;-86
2021/09/30 11:51:46;;;;;;;3.65;2.80;;;;;;;16.39;83.71;99827.42;2301309;77;20920;-88
2021/09/30 11:54:47;;;;;;;3.75;2.27;;;;;;;16.46;83.98;99832.27;2301369;77;21549;-86
2021/09/30 11:57:48;;;;;;;5.25;2.98;;;;;;;16.48;83.25;99836.05;2301335;77;21085;-86
2021/09/30 12:00:50;;;;;;;4.05;3.45;;;;;;;16.57;84.13;99836.22;2301381;77;20975;-87
2021/09/30 12:03:51;;;;;;;2.75;2.52;;;;;;;16.59;82.88;99838.67;2301235;77;21001;-87
2021/09/30 12:06:52;;;;;;;4.05;3.05;;;;;;;16.55;81.96;99847.50;2300979;77;21030;-87
2021/09/30 12:09:53;;;;;;;3.30;2.60;;;;;;;16.49;82.25;99848.25;2301727;77;21555;-85
2021/09/30 12:12:54;;;;;;;2.92;2.60;;;;;;;16.37;80.74;99849.27;2301548;77;20993;-85
2021/09/30 12:15:55;;;;;;;4.20;3.15;;;;;;;16.31;81.97;99858.45;2301303;77;21063;-87
2021/09/30 12:18:56;;;;;;;2.98;2.77;;;;;;;16.19;81.71;99851.53;2301410;77;20982;-87
2021/09/30 12:21:58;;;;;;;3.62;3.12;;;;;;;16.08;82.14;99861.25;2301615;77;20967;-88
2021/09/30 12:24:59;;;;;;;5.35;2.80;;;;;;;15.98;82.89;99860.73;2301203;77;21086;-87
2021/09/30 12:28:00;;;;;;;3.72;3.40;;;;;;;15.88;82.37;99860.53;2301602;77;20979;-87
2021/09/30 12:31:01;;;;;;;4.78;3.72;;;;;;;15.77;81.85;99862.34;2301319;77;21497;-87
2021/09/30 12:34:02;;;;;;;5.40;3.50;;;;;;;15.63;83.11;99869.30;2301543;77;20998;-87
2021/09/30 12:37:03;;;;;;;5.28;3.77;;;;;;;15.57;83.46;99861.25;2301257;77;20999;-87
2021/09/30 12:40:04;;;;;;;5.53;3.72;;;;;;;15.50;84.06;99864.30;2301317;77;20985;-87
2021/09/30 12:43:05;;;;;;;5.87;3.80;;;;;;;15.45;84.04;99862.20;2301197;77;21006;-87
2021/09/30 12:46:07;;;;;;;3.47;3.17;;;;;;;15.44;84.40;99861.06;2301457;77;21097;-89
2021/09/30 12:49:07;;;;;;;6.20;3.50;;;;;;;15.41;84.74;99859.62;2301347;77;20962;-88
2021/09/30 12:52:08;;;;;;;4.35;3.08;;;;;;;15.43;84.94;99858.11;2301364;77;21088;-86
2021/09/30 12:55:09;;;;;;;4.47;3.00;;;;;;;15.44;85.11;99859.75;2301156;77;21058;-87
2021/09/30 12:58:10;;;;;;;4.05;2.80;;;;;;;15.44;85.49;99858.42;2301228;77;21005;-87
2021/09/30 13:01:11;;;;;;;3.67;2.80;;;;;;;15.44;85.57;99853.97;2301336;77;21564;-87
2021/09/30 13:04:12;;;;;;;4.05;2.85;;;;;;;15.44;85.12;99851.33;2301158;77;20915;-88
2021/09/30 13:07:13;;;;;;;5.58;3.02;;;;;;;15.40;84.61;99855.84;2301258;77;21526;-87
2021/09/30 13:10:14;;;;;;;3.25;3.00;;;;;;;15.40;84.85;99849.25;2301453;77;20993;-88
2021/09/30 13:13:15;;;;;;;4.42;2.80;;;;;;;15.34;84.97;99841.05;2301361;77;21517;-88
2021/09/30 13:16:16;;;;;;;4.60;2.60;;;;;;;15.36;85.06;99842.18;2301352;77;21021;-87
2021/09/30 13:19:17;;;;;;;2.72;2.33;;;;;;;15.42;85.32;99841.96;2301346;77;20920;-88
2021/09/30 13:22:18;;;;;;;4.60;3.22;;;;;;;15.38;84.62;99840.20;2301335;77;20939;-86
2021/09/30 13:25:19;;;;;;;3.92;2.20;;;;;;;15.36;85.18;99836.91;2297565;77;20969;-88
2021/09/30 13:28:20;;;;;;;4.12;2.83;;;;;;;15.35;85.57;99841.37;2283308;78;21531;-88
2021/09/30 13:31:21;;;;;;;2.22;1.90;;;;;;;15.38;85.55;99842.84;2283415;78;21031;-86
2021/09/30 13:34:22;;;;;;;3.55;2.30;;;;;;;15.33;85.87;99841.23;2283362;78;21478;-87
2021/09/30 13:37:22;;;;;;;2.33;2.10;;;;;;;15.29;85.83;99836.84;2282929;78;20999;-86
2021/09/30 13:40:23;;;;;;;2.30;2.10;;;;;;;15.31;86.09;99836.66;2283076;78;20996;-87
2021/09/30 13:43:24;;;;;;;2.33;2.08;;;;;;;15.34;85.83;99840.23;2282962;77;21062;-86
2021/09/30 13:46:25;;;;;;;4.50;2.33;;;;;;;15.34;85.66;99841.05;2282769;78;21023;-88
2021/09/30 13:49:26;;;;;;;3.35;2.58;;;;;;;15.38;85.78;99840.20;2283135;78;21116;-88
2021/09/30 13:52:28;;;;;;;3.60;2.87;;;;;;;15.35;86.42;99833.45;2283245;78;20967;-87
2021/09/30 13:55:31;;;;;;;4.05;2.00;;;;;;;15.42;85.97;99844.09;2283293;78;21550;-86
2021/09/30 13:58:35;;;;;;;4.05;1.90;;;;;;;15.40;85.50;99843.97;2283191;78;21071;-87
2021/09/30 14:01:35;;;;;;;2.72;1.92;;;;;;;15.31;85.49;99836.15;2282939;77;21130;-88
2021/09/30 14:04:35;;;;;;;3.30;2.05;;;;;;;15.28;85.58;99838.34;2282925;78;21019;-89
2021/09/30 14:07:36;;;;;;;2.80;2.15;;;;;;;15.26;85.54;99837.69;2283060;77;21050;-88
2021/09/30 14:10:37;;;;;;;3.33;2.05;;;;;;;15.23;85.02;99846.80;2283243;78;20917;-89
2021/09/30 14:13:38;;;;;;;4.87;1.92;;;;;;;15.17;85.33;99845.38;2283319;78;21474;-87
2021/09/30 14:16:40;;;;;;;1.95;1.82;;;;;;;15.06;85.24;99844.01;2283279;77;21019;-88
2021/09/30 14:19:41;;;;;;;4.70;1.98;;;;;;;15.01;85.33;99835.84;2283354;78;21003;-89
2021/09/30 14:22:42;;;;;;;1.92;1.50;;;;;;;15.00;85.43;99833.70;2283456;77;21035;-89
2021/09/30 14:25:43;;;;;;;1.42;1.30;;;;;;;15.01;85.43;99839.80;2290528;77;21627;-88
2021/09/30 14:28:44;;;;;;;2.25;1.72;;;;;;;15.00;84.97;99833.70;2314753;77;20953;-87
2021/09/30 14:31:45;;;;;;;3.00;1.60;;;;;;;15.00;85.58;99825.79;2314690;77;21019;-87
2021/09/30 14:34:45;;;;;;;3.33;1.55;;;;;;;14.96;85.00;99831.59;2314728;77;21005;-86
2021/09/30 14:37:46;;;;;;;2.33;2.08;;;;;;;14.90;85.20;99831.80;2314588;77;21068;-86
2021/09/30 14:40:50;;;;;;;2.67;1.90;;;;;;;14.80;85.79;99830.74;2314702;77;20964;-87
2021/09/30 14:43:51;;;;;;;5.12;1.98;;;;;;;14.74;86.19;99835.94;2314900;77;20985;-84
2021/09/30 14:46:52;;;;;;;3.70;2.12;;;;;;;14.67;86.01;99825.78;2314699;77;20984;-86
2021/09/30 14:49:53;;;;;;;2.60;2.08;;;;;;;14.63;85.74;99825.33;2315040;77;20969;-88
2021/09/30 14:52:54;;;;;;;3.83;2.12;;;;;;;14.60;85.94;99828.30;2315052;77;20968;-88
2021/09/30 14:55:55;;;;;;;5.25;2.80;;;;;;;14.51;86.94;99826.23;2314677;77;21028;-86
2021/09/30 14:58:56;;;;;;;5.22;2.25;;;;;;;14.49;87.48;99823.46;2314752;77;20949;-87
2021/09/30 15:01:56;;;;;;;4.42;2.02;;;;;;;14.49;87.50;99830.05;2316537;77;21014;-86
2021/09/30 15:04:57;;;;;;;2.00;1.80;;;;;;;14.53;88.45;99834.45;2315623;77;20976;-88
2021/09/30 15:07:58;;;;;;;2.87;2.02;;;;;;;14.50;88.20;99835.64;2314617;77;21022;-88
2021/09/30 15:10:59;;;;;;;2.90;2.17;;;;;;;14.47;88.83;99841.27;2314988;77;21428;-87
2021/09/30 15:14:00;;;;;;;3.72;2.60;;;;;;;14.42;89.08;99839.13;2315584;77;20988;-89
2021/09/30 15:17:09;;;;;;;7.55;2.75;;;;;;;14.43;89.54;99840.76;2314956;77;20992;-88
2021/09/30 15:23:07;;;;;;;6.92;3.02;;;;;;;14.40;89.96;99833.72;2314715;77;21027;-87
2021/09/30 15:26:08;;;;;;;4.80;3.85;;;;;;;14.33;90.59;99838.05;2314789;77;21055;-88
2021/09/30 15:29:09;;;;;;;4.65;2.70;;;;;;;14.27;90.69;99838.77;2314927;77;21042;-88
2021/09/30 15:32:10;;;;;;;5.08;3.20;;;;;;;14.24;91.17;99838.60;2314471;77;20941;-89
2021/09/30 15:35:11;;;;;;;5.08;3.15;;;;;;;14.20;91.69;99841.28;2314330;77;21544;-88
2021/09/30 15:38:12;;;;;;;7.90;4.72;;;;;;;14.19;92.22;99840.95;2314479;77;20995;-88
2021/09/30 15:41:12;;;;;;;6.78;4.08;;;;;;;14.19;92.54;99844.41;2314470;77;21544;-89
2021/09/30 15:44:18;;;;;;;4.55;3.15;;;;;;;14.23;92.84;99850.95;2314376;77;20949;-87
2021/09/30 15:47:16;;;;;;;14.18;8.18;;;;;;;14.17;92.94;99850.36;2313937;76;22027;-85
2021/09/30 15:50:17;;;;;;;21.17;14.95;;;;;;;14.15;93.63;99854.95;2314722;77;21119;-87
2021/09/30 15:53:18;;;;;;;18.45;15.60;;;;;;;14.16;93.89;99859.73;2314889;77;21466;-87
2021/09/30 15:56:18;;;;;;;16.65;13.83;;;;;;;14.17;94.20;99857.41;2314681;77;21114;-85
2021/09/30 15:59:19;;;;;;;20.40;13.83;;;;;;;14.23;94.58;99852.77;2314637;77;20957;-87
2021/09/30 16:02:20;;;;;;;19.48;13.20;;;;;;;14.32;94.48;99854.85;2314717;77;21052;-86
2021/09/30 16:05:21;;;;;;;32.23;20.45;;;;;;;14.35;94.71;99852.67;2314704;77;21056;-85
2021/09/30 16:08:22;;;;;;;34.13;21.45;;;;;;;14.33;94.74;99852.53;2314839;77;21305;-86
2021/09/30 16:11:23;;;;;;;48.95;25.15;;;;;;;14.28;94.82;99864.12;2314838;77;21467;-86
2021/09/30 16:14:27;;;;;;;43.85;27.05;;;;;;;14.21;94.86;99865.30;2314690;77;21471;-87
2021/09/30 16:17:28;;;;;;;45.12;28.77;;;;;;;14.16;95.16;99870.26;2314763;77;20977;-85
2021/09/30 16:20:29;;;;;;;40.28;26.45;;;;;;;14.10;95.61;99874.43;2314778;77;21040;-84
2021/09/30 16:23:33;;;;;;;45.78;28.57;;;;;;;14.08;96.00;99878.20;2314760;77;20961;-85
2021/09/30 16:26:34;;;;;;;43.38;27.98;;;;;;;14.06;96.58;99881.02;2309569;77;21065;-83
2021/09/30 16:29:35;;;;;;;44.45;27.77;;;;;;;14.03;96.78;99877.92;2301647;77;21002;-83
2021/09/30 16:32:36;;;;;;;42.15;25.97;;;;;;;13.97;97.19;99888.64;2301471;77;21190;-83
2021/09/30 16:35:37;;;;;;;42.43;25.27;;;;;;;13.92;97.61;99882.59;2301187;77;21438;-84
2021/09/30 16:38:38;;;;;;;32.75;19.42;;;;;;;13.87;98.13;99888.86;2301397;77;21505;-87
2021/09/30 16:41:41;;;;;;;33.13;18.23;;;;;;;13.82;98.75;99885.13;2300948;77;20966;-87
2021/09/30 16:44:42;;;;;;;33.18;18.20;;;;;;;13.75;99.23;99886.30;2301274;77;21047;-88
2021/09/30 16:47:44;;;;;;;30.05;18.10;;;;;;;13.70;99.95;99891.23;2301498;77;21430;-88
2021/09/30 16:50:45;;;;;;;36.00;20.57;;;;;;;13.62;100.00;99893.43;2301207;77;21453;-85
2021/09/30 16:53:46;;;;;;;44.58;23.73;;;;;;;13.59;100.00;99891.12;2300986;77;20960;-85
2021/09/30 16:56:47;;;;;;;38.92;22.93;;;;;;;13.52;100.00;99895.41;2301273;77;20971;-87
2021/09/30 16:59:48;;;;;;;37.60;22.13;;;;;;;13.47;100.00;99895.12;2301412;77;20987;-86
2021/09/30 17:02:49;;;;;;;24.75;16.12;;;;;;;13.44;100.00;99903.36;2301420;77;21017;-86
2021/09/30 17:05:50;;;;;;;23.67;14.03;;;;;;;13.40;100.00;99894.64;2301023;77;22094;-86
2021/09/30 17:08:50;;;;;;;16.73;9.60;;;;;;;13.33;100.00;99897.12;2301402;77;21009;-87
2021/09/30 17:11:51;;;;;;;14.55;9.60;;;;;;;13.28;100.00;99892.88;2301315;77;21006;-85
2021/09/30 17:14:53;;;;;;;15.13;8.05;;;;;;;13.24;100.00;99895.50;2301444;77;21493;-86
2021/09/30 17:17:54;;;;;;;11.12;8.40;;;;;;;13.20;100.00;99898.15;2301470;77;20998;-86
2021/09/30 17:20:56;;;;;;;10.40;9.13;;;;;;;13.14;100.00;99899.59;2301410;77;20970;-85
2021/09/30 17:23:57;;;;;;;9.48;8.58;;;;;;;13.08;100.00;99902.41;2301355;77;21084;-88
2021/09/30 17:26:58;;;;;;;9.38;6.92;;;;;;;12.97;100.00;99888.28;2294414;77;21332;-85
2021/09/30 17:29:59;;;;;;;7.92;6.37;;;;;;;12.94;100.00;99899.13;2283954;78;20976;-89
2021/09/30 17:33:00;;;;;;;6.15;5.53;;;;;;;12.87;100.00;99895.52;2284657;78;21035;-84
2021/09/30 17:36:01;;;;;;;6.08;4.90;;;;;;;12.75;100.00;99895.53;2284329;77;20984;-85
2021/09/30 17:39:04;;;;;;;14.03;5.25;;;;;;;12.71;100.00;99906.03;2284445;78;20956;-87
2021/09/30 17:42:04;;;;;;;5.83;5.28;;;;;;;12.62;100.00;99909.64;2284284;78;21482;-85
2021/09/30 17:45:05;;;;;;;6.22;5.62;;;;;;;12.56;100.00;99911.13;2284174;77;21009;-85
2021/09/30 17:48:06;;;;;;;6.05;5.42;;;;;;;12.48;100.00;99914.56;2284082;78;21296;-86
2021/09/30 17:51:07;;;;;;;6.58;5.15;;;;;;;12.42;100.00;99915.20;2283669;78;21008;-88